Time;durP1;ratioP1;P1;durP2;ratioP2;P2;SDS_P1;SDS_P2;PMS_P1;PMS_P2;Temp;Humidity;BMP_temperature;BMP_pressure;BME280_temperature;BME280_humidity;BME280_pressure;Samples;Min_cycle;Max_cycle;Signal;HPM_P1;HPM_P2
2022/10/07 00:01:17;;;;;;;6.78;2.85;;;11.90;72.10;;;;;;5009520;28;20742;-67
2022/10/07 00:03:43;;;;;;;6.97;2.72;;;11.90;72.40;;;;;;5008731;28;20030;-67
2022/10/07 00:06:15;;;;;;;6.00;3.00;;;11.90;72.60;;;;;;5007566;28;20022;-65
2022/10/07 00:08:44;;;;;;;6.05;2.55;;;11.80;72.70;;;;;;5008895;28;20034;-66
2022/10/07 00:11:14;;;;;;;7.18;2.95;;;11.80;72.80;;;;;;5008828;28;20485;-67
2022/10/07 00:13:40;;;;;;;5.15;2.78;;;11.80;73.00;;;;;;5008762;28;20619;-66
2022/10/07 00:16:18;;;;;;;7.65;3.10;;;11.80;73.10;;;;;;5008606;28;20026;-67
2022/10/07 00:18:45;;;;;;;8.80;3.30;;;11.70;73.30;;;;;;5006690;28;20034;-67
2022/10/07 00:21:13;;;;;;;7.45;3.30;;;11.70;73.50;;;;;;5008900;28;20073;-67
2022/10/07 00:23:41;;;;;;;7.70;3.13;;;11.60;73.90;;;;;;5007234;28;20087;-66
2022/10/07 00:26:08;;;;;;;7.57;3.30;;;11.60;74.10;;;;;;5008759;28;20511;-68
2022/10/07 00:28:35;;;;;;;8.10;3.20;;;11.50;74.20;;;;;;5008116;28;20045;-66
2022/10/07 00:31:21;;;;;;;7.70;3.30;;;11.50;74.30;;;;;;5005924;28;20025;-67
2022/10/07 00:33:48;;;;;;;6.63;3.30;;;11.50;74.50;;;;;;5008090;28;20388;-67
2022/10/07 00:36:25;;;;;;;7.93;3.65;;;11.50;74.70;;;;;;5008240;28;20160;-67
2022/10/07 00:39:12;;;;;;;10.27;3.58;;;11.50;75.00;;;;;;5009699;28;20503;-67
2022/10/07 00:41:44;;;;;;;10.52;3.85;;;11.40;75.30;;;;;;5009198;28;20477;-67
2022/10/07 00:44:31;;;;;;;10.75;3.90;;;11.40;75.40;;;;;;5012243;28;20052;-67
2022/10/07 00:47:10;;;;;;;12.57;3.70;;;11.40;75.50;;;;;;5011092;28;20072;-68
2022/10/07 00:49:44;;;;;;;6.45;3.08;;;11.30;75.80;;;;;;5010066;28;20021;-68
2022/10/07 00:52:11;;;;;;;8.00;3.28;;;11.30;75.80;;;;;;5011095;28;20088;-68
2022/10/07 00:54:37;;;;;;;6.68;2.80;;;11.30;75.80;;;;;;5011931;28;20030;-67
2022/10/07 00:57:03;;;;;;;7.88;2.88;;;11.30;75.80;;;;;;5008048;28;20098;-67
2022/10/07 00:59:29;;;;;;;9.95;3.38;;;11.30;75.80;;;;;;5011608;28;20037;-67
2022/10/07 01:01:55;;;;;;;7.57;2.88;;;11.30;75.90;;;;;;5011173;28;20026;-67
2022/10/07 01:04:21;;;;;;;5.88;2.95;;;11.30;76.00;;;;;;5008190;28;20546;-67
2022/10/07 01:06:46;;;;;;;7.28;3.00;;;11.30;76.00;;;;;;5010364;28;20029;-67
2022/10/07 01:09:13;;;;;;;5.47;2.53;;;11.20;76.10;;;;;;5010434;28;20113;-67
2022/10/07 01:11:54;;;;;;;7.45;2.75;;;11.20;76.10;;;;;;5011055;28;20488;-67
2022/10/07 01:14:38;;;;;;;6.57;2.70;;;11.20;76.10;;;;;;5010898;28;20156;-68
2022/10/07 01:17:20;;;;;;;5.25;2.63;;;11.20;76.20;;;;;;5009822;28;20084;-67
2022/10/07 01:20:04;;;;;;;10.13;3.60;;;11.20;76.10;;;;;;5011100;28;20465;-67
2022/10/07 01:23:02;;;;;;;6.07;2.83;;;11.20;76.30;;;;;;5011184;28;20022;-68
2022/10/07 01:26:10;;;;;;;7.32;3.40;;;11.20;76.50;;;;;;5011293;28;20396;-68
2022/10/07 01:28:59;;;;;;;7.22;3.05;;;11.10;76.50;;;;;;5010950;28;20036;-68
2022/10/07 01:31:39;;;;;;;5.90;2.65;;;11.10;76.60;;;;;;5011180;28;20392;-67
2022/10/07 01:34:07;;;;;;;7.30;2.80;;;11.20;76.70;;;;;;5011124;28;20481;-67
2022/10/07 01:36:35;;;;;;;7.88;3.08;;;11.10;76.60;;;;;;5011035;28;20021;-67
2022/10/07 01:39:08;;;;;;;6.38;3.47;;;11.20;76.70;;;;;;5010328;28;20236;-68
2022/10/07 01:41:37;;;;;;;7.10;3.35;;;11.10;76.90;;;;;;5009264;28;20018;-67
2022/10/07 01:44:03;;;;;;;8.85;3.50;;;11.10;77.10;;;;;;5010718;28;20022;-68
2022/10/07 01:46:30;;;;;;;9.82;3.60;;;11.10;77.20;;;;;;5008739;28;20625;-68
2022/10/07 01:48:56;;;;;;;9.35;3.90;;;11.10;77.50;;;;;;5008905;28;20026;-68
2022/10/07 01:51:27;;;;;;;6.82;3.05;;;11.10;77.70;;;;;;5010709;28;20036;-67
2022/10/07 01:54:04;;;;;;;7.47;3.30;;;11.10;77.60;;;;;;5010585;28;20038;-67
2022/10/07 01:56:29;;;;;;;9.85;3.22;;;11.10;77.70;;;;;;5007580;28;20026;-67
2022/10/07 01:59:33;;;;;;;10.57;3.60;;;11.10;77.70;;;;;;5014439;28;20030;-67
2022/10/07 02:02:42;;;;;;;6.13;3.10;;;11.10;77.80;;;;;;5027376;28;20152;-67
2022/10/07 02:05:34;;;;;;;10.20;3.75;;;11.10;78.50;;;;;;4990082;28;20041;-67
2022/10/07 02:08:06;;;;;;;7.50;3.45;;;11.10;77.90;;;;;;5010127;28;20068;-67
2022/10/07 02:10:58;;;;;;;6.20;3.20;;;11.10;77.80;;;;;;5010925;28;20026;-67
2022/10/07 02:13:37;;;;;;;5.95;2.97;;;11.00;77.80;;;;;;5009907;28;20045;-67
2022/10/07 02:16:09;;;;;;;7.30;3.10;;;11.00;77.90;;;;;;5009936;28;20014;-67
2022/10/07 02:18:36;;;;;;;;;;;11.10;78.10;;;;;;5008370;28;20044;-67
2022/10/07 02:21:05;;;;;;;7.78;2.63;;;11.00;77.90;;;;;;5010402;28;19909;-68
2022/10/07 02:23:33;;;;;;;9.40;3.67;;;11.00;78.60;;;;;;5010394;28;20026;-67
2022/10/07 02:26:01;;;;;;;8.70;3.10;;;11.00;78.00;;;;;;5007653;28;20026;-67
2022/10/07 02:28:28;;;;;;;6.55;3.30;;;11.00;78.20;;;;;;5008107;28;20029;-68
2022/10/07 02:30:58;;;;;;;9.82;3.67;;;11.00;78.20;;;;;;5010636;28;20026;-67
2022/10/07 02:33:26;;;;;;;8.93;3.58;;;11.00;78.40;;;;;;5009827;28;20025;-67
2022/10/07 02:35:55;;;;;;;7.65;3.17;;;11.00;78.50;;;;;;5008956;28;20033;-67
2022/10/07 02:38:21;;;;;;;8.68;2.80;;;11.00;78.60;;;;;;5009651;28;20034;-68
2022/10/07 02:41:32;;;;;;;9.32;3.40;;;11.00;78.60;;;;;;5010342;28;20435;-67
2022/10/07 02:44:08;;;;;;;8.43;3.30;;;10.90;78.50;;;;;;5006976;28;20022;-67
2022/10/07 02:46:57;;;;;;;8.55;3.20;;;10.90;78.70;;;;;;5009154;28;20510;-67
2022/10/07 02:49:27;;;;;;;8.77;2.80;;;10.90;78.80;;;;;;5007441;28;20030;-67
2022/10/07 02:52:04;;;;;;;7.13;2.88;;;10.90;78.90;;;;;;5009988;28;20028;-67
2022/10/07 02:54:38;;;;;;;7.60;2.95;;;10.90;79.00;;;;;;5009905;28;20034;-67
2022/10/07 02:57:05;;;;;;;10.32;3.22;;;10.80;78.90;;;;;;5009369;28;20703;-67
2022/10/07 02:59:32;;;;;;;8.10;3.33;;;10.90;79.10;;;;;;5010004;28;20400;-67
2022/10/07 03:02:01;;;;;;;7.32;3.35;;;10.80;79.10;;;;;;5009280;28;20025;-67
2022/10/07 03:04:27;;;;;;;11.25;3.55;;;10.80;79.20;;;;;;5009589;28;20052;-67
2022/10/07 03:06:53;;;;;;;10.15;4.22;;;10.80;79.40;;;;;;5009105;28;20164;-67
2022/10/07 03:09:19;;;;;;;8.82;3.35;;;10.70;79.70;;;;;;5008126;28;20052;-67
2022/10/07 03:11:45;;;;;;;9.02;3.78;;;10.80;80.00;;;;;;5009410;28;20038;-67
2022/10/07 03:14:10;;;;;;;7.32;2.95;;;10.80;80.70;;;;;;5009043;28;20022;-67
2022/10/07 03:16:36;;;;;;;9.07;3.47;;;10.80;80.00;;;;;;5007278;28;20144;-68
2022/10/07 03:19:02;;;;;;;7.43;2.95;;;10.80;80.10;;;;;;5009619;28;20091;-67
2022/10/07 03:21:27;;;;;;;7.40;3.17;;;10.80;80.20;;;;;;5009378;28;20488;-68
2022/10/07 03:23:54;;;;;;;9.25;3.30;;;10.70;80.10;;;;;;5009757;28;20030;-68
2022/10/07 03:26:20;;;;;;;7.90;3.05;;;10.80;80.10;;;;;;5008542;28;20034;-68
2022/10/07 03:28:46;;;;;;;7.13;3.08;;;10.80;80.10;;;;;;5009514;28;20044;-67
2022/10/07 03:31:13;;;;;;;11.45;3.85;;;10.80;80.20;;;;;;5009178;28;20026;-68
2022/10/07 03:33:39;;;;;;;6.53;2.75;;;10.70;80.20;;;;;;5009566;28;20061;-67
2022/10/07 03:36:07;;;;;;;10.52;3.13;;;10.70;80.10;;;;;;5009363;28;20061;-68
2022/10/07 03:38:33;;;;;;;11.57;3.50;;;10.80;80.20;;;;;;5008750;28;20084;-68
2022/10/07 03:41:00;;;;;;;9.73;3.65;;;10.70;80.30;;;;;;5009510;28;20109;-68
2022/10/07 03:43:26;;;;;;;8.20;3.00;;;10.70;80.60;;;;;;5009422;28;20555;-68
2022/10/07 03:45:52;;;;;;;8.85;3.10;;;10.70;80.70;;;;;;5009326;28;20492;-68
2022/10/07 03:48:18;;;;;;;8.65;3.17;;;10.70;80.80;;;;;;5009300;28;20049;-67
2022/10/07 03:50:51;;;;;;;11.95;4.20;;;10.70;80.70;;;;;;5008813;28;20076;-68
2022/10/07 03:53:17;;;;;;;14.65;3.83;;;10.70;80.90;;;;;;5009202;28;20057;-68
2022/10/07 03:55:43;;;;;;;9.70;3.45;;;10.70;81.20;;;;;;5008898;28;20042;-68
2022/10/07 03:58:10;;;;;;;9.00;3.08;;;10.70;81.40;;;;;;5008275;28;20059;-68
2022/10/07 04:00:37;;;;;;;9.75;3.38;;;10.80;81.40;;;;;;5008823;28;20376;-68
2022/10/07 04:03:04;;;;;;;8.48;3.10;;;10.80;81.40;;;;;;5009407;28;20021;-68
2022/10/07 04:05:30;;;;;;;10.85;3.22;;;10.80;81.40;;;;;;5009641;28;20057;-68
2022/10/07 04:07:55;;;;;;;10.27;3.38;;;10.80;81.30;;;;;;5006104;28;20022;-68
2022/10/07 04:10:21;;;;;;;6.80;2.95;;;10.80;81.30;;;;;;5009639;28;20038;-68
2022/10/07 04:12:47;;;;;;;12.43;3.60;;;10.80;81.30;;;;;;5010309;28;20101;-68
2022/10/07 04:15:13;;;;;;;9.40;3.15;;;10.80;81.60;;;;;;5013035;28;20072;-68
2022/10/07 04:17:39;;;;;;;8.77;3.58;;;10.70;81.60;;;;;;5012721;28;20487;-67
2022/10/07 04:20:06;;;;;;;14.05;4.32;;;10.70;81.60;;;;;;5012366;28;20033;-68
2022/10/07 04:22:31;;;;;;;12.60;3.67;;;10.70;81.60;;;;;;5010552;28;20087;-68
2022/10/07 04:27:41;;;;;;;10.73;3.70;;;10.70;81.90;;;;;;5011556;28;20033;-67
2022/10/07 04:30:07;;;;;;;8.63;2.97;;;10.70;82.00;;;;;;5011242;28;20030;-67
2022/10/07 04:32:33;;;;;;;7.88;2.97;;;10.70;82.10;;;;;;5012525;28;20022;-67
2022/10/07 04:35:01;;;;;;;9.00;2.85;;;10.60;82.00;;;;;;5012573;28;20022;-69
2022/10/07 04:37:27;;;;;;;8.80;3.38;;;10.70;82.00;;;;;;5012047;28;20025;-68
2022/10/07 04:39:52;;;;;;;8.20;3.10;;;10.60;82.00;;;;;;5011967;28;20033;-68
2022/10/07 04:45:02;;;;;;;7.70;3.00;;;10.60;82.10;;;;;;5009641;28;20068;-67
2022/10/07 04:47:28;;;;;;;6.13;2.70;;;10.60;82.20;;;;;;5012097;28;20065;-68
2022/10/07 04:49:54;;;;;;;10.77;3.10;;;10.60;82.10;;;;;;5012157;28;20022;-67
2022/10/07 04:52:19;;;;;;;9.32;3.10;;;10.60;82.10;;;;;;5005362;28;20038;-66
2022/10/07 04:54:45;;;;;;;5.20;2.10;;;10.60;82.10;;;;;;5011996;28;20662;-67
2022/10/07 04:57:12;;;;;;;5.10;2.60;;;10.70;82.00;;;;;;5011603;28;20026;-68
2022/10/07 04:59:38;;;;;;;7.05;3.15;;;10.70;81.80;;;;;;5012057;28;20365;-68
2022/10/07 05:02:04;;;;;;;7.20;2.53;;;10.70;81.80;;;;;;5011067;28;20030;-68
2022/10/07 05:04:29;;;;;;;8.38;3.13;;;10.60;81.80;;;;;;5011302;28;20129;-68
2022/10/07 05:06:55;;;;;;;9.98;3.08;;;10.50;81.80;;;;;;5012610;28;20030;-68
2022/10/07 05:09:20;;;;;;;9.18;3.15;;;10.50;81.90;;;;;;5009488;28;20121;-68
2022/10/07 05:11:47;;;;;;;8.70;2.88;;;10.50;82.00;;;;;;5011401;28;20108;-67
2022/10/07 05:14:12;;;;;;;5.28;2.45;;;10.50;81.90;;;;;;5011368;28;20032;-68
2022/10/07 05:16:38;;;;;;;5.28;2.47;;;10.50;81.80;;;;;;5009032;28;20030;-68
2022/10/07 05:19:04;;;;;;;6.90;2.80;;;10.50;81.70;;;;;;5010665;28;20044;-69
2022/10/07 05:21:29;;;;;;;6.43;2.60;;;10.50;81.70;;;;;;5011551;28;20034;-68
2022/10/07 05:23:55;;;;;;;7.45;2.90;;;10.50;81.70;;;;;;5010836;28;20026;-68
2022/10/07 05:26:20;;;;;;;8.02;2.80;;;10.50;81.60;;;;;;5011690;28;20108;-68
2022/10/07 05:28:48;;;;;;;8.20;2.53;;;10.50;81.60;;;;;;5010772;28;20388;-68
2022/10/07 05:31:14;;;;;;;5.75;2.30;;;10.50;81.60;;;;;;5007920;28;20018;-68
2022/10/07 05:33:40;;;;;;;6.55;2.85;;;10.50;81.50;;;;;;5014083;28;20029;-68
2022/10/07 05:36:07;;;;;;;8.68;2.75;;;10.50;81.50;;;;;;5012664;28;20495;-68
2022/10/07 05:38:34;;;;;;;9.05;3.30;;;10.50;81.50;;;;;;5010424;28;20022;-68
2022/10/07 05:41:01;;;;;;;8.05;3.15;;;10.40;81.60;;;;;;5011312;28;20492;-68
2022/10/07 05:43:29;;;;;;;9.07;3.47;;;10.40;81.70;;;;;;5010913;28;20022;-68
2022/10/07 05:46:04;;;;;;;10.13;3.22;;;10.40;81.80;;;;;;5008341;28;20045;-68
2022/10/07 05:48:31;;;;;;;6.00;3.00;;;10.40;81.80;;;;;;5010087;28;20037;-67
2022/10/07 05:50:57;;;;;;;9.98;3.67;;;10.40;81.80;;;;;;5010889;28;20022;-68
2022/10/07 05:53:27;;;;;;;10.38;3.08;;;10.40;81.80;;;;;;5010291;28;20650;-69
2022/10/07 05:55:53;;;;;;;9.73;3.47;;;10.40;82.00;;;;;;5010236;28;20018;-69
2022/10/07 05:58:19;;;;;;;6.47;3.20;;;10.40;82.20;;;;;;5010419;28;20033;-69
2022/10/07 06:00:54;;;;;;;10.85;3.22;;;10.40;82.30;;;;;;5009882;28;20030;-69
2022/10/07 06:03:21;;;;;;;7.53;3.20;;;10.40;82.30;;;;;;5010390;28;20030;-68
2022/10/07 06:05:49;;;;;;;9.18;3.30;;;10.50;82.40;;;;;;5010586;28;20410;-68
2022/10/07 06:08:17;;;;;;;10.02;3.40;;;10.40;82.30;;;;;;5009743;28;20025;-68
2022/10/07 06:13:26;;;;;;;7.90;3.00;;;10.50;82.20;;;;;;5002661;28;20514;-68
2022/10/07 06:15:52;;;;;;;9.07;3.33;;;10.50;82.20;;;;;;5011035;28;20061;-69
2022/10/07 06:18:17;;;;;;;11.15;3.83;;;10.60;82.20;;;;;;5011202;28;20033;-69
2022/10/07 06:21:00;;;;;;;7.60;3.53;;;10.60;82.20;;;;;;5011093;28;20030;-69
2022/10/07 06:23:27;;;;;;;10.38;3.70;;;10.60;82.20;;;;;;5009946;28;20037;-69
2022/10/07 06:25:57;;;;;;;8.65;3.50;;;10.60;82.10;;;;;;5009608;28;20030;-69
2022/10/07 06:28:23;;;;;;;11.73;4.00;;;10.60;82.10;;;;;;5008517;28;20025;-69
2022/10/07 06:30:50;;;;;;;9.73;3.50;;;10.70;82.10;;;;;;5006035;28;20152;-69
2022/10/07 06:33:16;;;;;;;7.72;3.08;;;10.70;82.70;;;;;;5004583;28;20033;-69
2022/10/07 06:35:43;;;;;;;9.43;3.25;;;10.70;82.00;;;;;;4999435;28;20022;-69
2022/10/07 06:38:08;;;;;;;8.90;3.15;;;10.80;81.90;;;;;;5002727;28;20625;-69
2022/10/07 06:40:34;;;;;;;7.38;2.70;;;10.90;81.80;;;;;;5006833;28;20029;-68
2022/10/07 06:42:59;;;;;;;7.13;2.78;;;11.00;81.60;;;;;;5005327;28;20033;-68
2022/10/07 06:45:25;;;;;;;6.03;2.90;;;11.00;81.30;;;;;;5007871;28;20266;-68
2022/10/07 06:47:51;;;;;;;7.78;2.85;;;11.10;81.00;;;;;;5008685;28;20490;-69
2022/10/07 06:50:17;;;;;;;8.25;3.05;;;11.20;80.90;;;;;;5007325;28;20049;-69
2022/10/07 06:52:43;;;;;;;7.40;2.90;;;11.20;80.70;;;;;;5003845;28;20725;-69
2022/10/07 06:55:08;;;;;;;10.80;4.32;;;11.30;80.60;;;;;;5005699;28;20041;-68
2022/10/07 06:57:34;;;;;;;9.52;4.03;;;11.30;80.40;;;;;;5004034;28;20025;-68
2022/10/07 07:00:00;;;;;;;12.15;4.00;;;11.40;80.30;;;;;;5004031;28;20025;-69
2022/10/07 07:02:29;;;;;;;8.95;3.13;;;11.40;80.10;;;;;;5007972;28;20416;-69
2022/10/07 07:04:56;;;;;;;10.07;3.50;;;11.50;80.00;;;;;;5009406;28;20026;-68
2022/10/07 07:07:23;;;;;;;9.18;3.15;;;11.50;79.80;;;;;;5006946;28;20034;-68
2022/10/07 07:09:51;;;;;;;9.05;3.22;;;11.60;79.70;;;;;;5008484;28;20025;-70
2022/10/07 07:12:17;;;;;;;11.27;3.05;;;11.70;79.60;;;;;;5009185;28;20033;-68
2022/10/07 07:14:43;;;;;;;12.27;3.75;;;11.80;79.40;;;;;;5009378;28;20034;-68
2022/10/07 07:17:10;;;;;;;8.27;3.00;;;11.90;79.10;;;;;;5006166;28;20026;-68
2022/10/07 07:19:36;;;;;;;9.55;3.00;;;12.00;78.90;;;;;;5005460;28;20477;-68
2022/10/07 07:22:02;;;;;;;8.75;3.15;;;12.10;78.50;;;;;;5011442;28;20052;-67
2022/10/07 07:24:27;;;;;;;6.72;2.70;;;12.20;78.30;;;;;;5009368;28;20029;-68
2022/10/07 07:26:53;;;;;;;6.65;2.83;;;12.30;78.00;;;;;;5011486;28;20025;-69
2022/10/07 07:29:19;;;;;;;13.30;3.25;;;12.40;77.80;;;;;;5008788;28;20025;-67
2022/10/07 07:31:44;;;;;;;10.18;3.50;;;12.40;77.50;;;;;;5009518;28;20028;-68
2022/10/07 07:34:12;;;;;;;11.95;3.47;;;12.40;77.30;;;;;;5006895;28;20037;-68
2022/10/07 07:36:52;;;;;;;14.68;4.00;;;12.50;77.20;;;;;;5009437;28;20022;-68
2022/10/07 07:39:18;;;;;;;9.23;3.40;;;12.40;77.00;;;;;;5007635;28;20034;-67
2022/10/07 07:41:46;;;;;;;11.95;4.68;;;12.40;77.10;;;;;;5008104;28;20017;-68
2022/10/07 07:44:14;;;;;;;14.90;4.57;;;12.40;77.10;;;;;;5008922;28;20432;-68
2022/10/07 07:46:43;;;;;;;13.95;4.47;;;12.40;77.00;;;;;;5005555;28;20026;-68
2022/10/07 07:49:11;;;;;;;15.65;4.55;;;12.30;77.10;;;;;;5012166;28;20048;-68
2022/10/07 07:51:37;;;;;;;10.90;4.47;;;12.30;77.10;;;;;;5011989;28;20026;-68
2022/10/07 07:54:02;;;;;;;12.18;4.35;;;12.30;77.20;;;;;;5012673;28;20106;-68
2022/10/07 07:56:30;;;;;;;13.02;5.13;;;12.30;77.30;;;;;;5012763;28;20431;-68
2022/10/07 07:58:57;;;;;;;11.23;3.97;;;12.30;77.30;;;;;;5010403;28;20108;-68
2022/10/07 08:01:23;;;;;;;10.23;3.97;;;12.40;77.30;;;;;;5012733;28;20026;-68
2022/10/07 08:03:49;;;;;;;8.90;4.32;;;12.50;77.30;;;;;;5012037;28;20028;-67
2022/10/07 08:06:18;;;;;;;11.90;4.60;;;12.60;77.10;;;;;;5013005;28;20037;-68
2022/10/07 08:08:43;;;;;;;11.98;4.00;;;12.70;76.80;;;;;;5011278;28;20099;-68
2022/10/07 08:11:11;;;;;;;9.90;3.60;;;12.80;76.60;;;;;;5012189;28;20062;-68
2022/10/07 08:13:40;;;;;;;7.80;3.47;;;12.90;76.40;;;;;;5006281;28;20092;-68
2022/10/07 08:16:12;;;;;;;9.50;3.45;;;13.00;76.10;;;;;;5010172;28;20080;-68
2022/10/07 08:18:39;;;;;;;7.63;3.22;;;13.00;75.80;;;;;;5009098;28;20480;-68
2022/10/07 08:21:06;;;;;;;9.10;3.60;;;13.00;75.80;;;;;;5011950;28;20022;-68
2022/10/07 08:23:34;;;;;;;8.40;3.13;;;13.00;75.80;;;;;;5011506;28;20415;-68
2022/10/07 08:26:00;;;;;;;14.60;3.90;;;13.00;75.90;;;;;;5012054;28;20030;-68
2022/10/07 08:28:27;;;;;;;6.07;2.85;;;13.00;75.80;;;;;;5002376;28;20025;-68
2022/10/07 08:31:05;;;;;;;11.65;3.70;;;13.00;75.80;;;;;;5009406;28;20038;-68
2022/10/07 08:33:33;;;;;;;9.65;3.35;;;13.20;75.70;;;;;;5011558;28;20027;-68
2022/10/07 08:36:00;;;;;;;10.45;3.20;;;13.30;75.50;;;;;;5007970;28;20080;-68
2022/10/07 08:38:45;;;;;;;13.85;3.35;;;13.40;75.20;;;;;;5006683;28;20032;-68
2022/10/07 08:41:31;;;;;;;7.82;2.65;;;13.50;75.00;;;;;;5010429;28;20022;-68
2022/10/07 08:43:58;;;;;;;8.25;2.88;;;13.50;74.80;;;;;;5005570;28;20018;-68
2022/10/07 08:46:31;;;;;;;6.93;2.45;;;13.50;74.70;;;;;;5009698;28;20392;-68
2022/10/07 08:49:03;;;;;;;5.88;2.40;;;13.60;74.80;;;;;;5009727;28;20021;-68
2022/10/07 08:51:38;;;;;;;7.28;2.80;;;13.80;74.80;;;;;;5012070;28;20022;-68
2022/10/07 08:54:04;;;;;;;8.82;3.10;;;13.80;74.50;;;;;;5010584;28;20488;-68
2022/10/07 08:56:32;;;;;;;12.90;3.88;;;13.90;74.40;;;;;;5012128;28;20088;-68
2022/10/07 08:59:29;;;;;;;9.25;2.78;;;14.00;74.30;;;;;;5010350;28;20018;-67
2022/10/07 09:02:21;;;;;;;8.32;2.75;;;14.10;74.20;;;;;;5009091;28;20053;-68
2022/10/07 09:05:05;;;;;;;;;;;14.40;74.00;;;;;;5010096;28;20101;-68
2022/10/07 09:07:45;;;;;;;10.93;3.25;;;14.50;73.50;;;;;;5010509;28;19931;-68
2022/10/07 09:10:22;;;;;;;8.95;2.90;;;14.60;73.30;;;;;;5007378;28;20033;-69
2022/10/07 09:13:19;;;;;;;12.25;3.05;;;14.70;72.90;;;;;;4998875;28;20048;-68
2022/10/07 09:16:03;;;;;;;8.00;2.58;;;14.80;72.70;;;;;;5005875;28;20022;-68
2022/10/07 09:18:40;;;;;;;10.70;2.60;;;14.90;72.30;;;;;;4996440;28;20023;-68
2022/10/07 09:21:22;;;;;;;8.98;2.70;;;14.90;71.80;;;;;;4996093;28;20018;-68
2022/10/07 09:24:04;;;;;;;12.25;2.97;;;15.10;72.00;;;;;;5007122;28;20095;-68
2022/10/07 09:26:30;;;;;;;8.48;2.90;;;15.10;71.60;;;;;;5002066;28;20433;-68
2022/10/07 09:28:57;;;;;;;8.23;2.85;;;15.20;71.70;;;;;;5000481;28;20033;-68
2022/10/07 09:31:23;;;;;;;13.15;3.42;;;15.30;71.40;;;;;;5009893;28;20038;-68
2022/10/07 09:33:51;;;;;;;9.23;3.30;;;15.40;71.00;;;;;;5012253;28;20380;-68
2022/10/07 09:36:18;;;;;;;7.18;2.00;;;15.30;70.40;;;;;;5010716;28;20064;-68
2022/10/07 09:38:46;;;;;;;6.47;2.00;;;15.40;70.70;;;;;;5000418;28;20650;-68
2022/10/07 09:41:30;;;;;;;8.68;2.33;;;15.40;70.70;;;;;;5011397;28;20080;-68
2022/10/07 09:44:13;;;;;;;8.60;2.55;;;15.50;70.70;;;;;;5010249;28;20057;-68
2022/10/07 09:46:46;;;;;;;8.23;2.30;;;15.50;70.60;;;;;;5011135;28;20040;-68
2022/10/07 09:49:27;;;;;;;8.82;2.38;;;15.60;70.50;;;;;;5007879;28;20030;-68
2022/10/07 09:52:05;;;;;;;7.35;2.40;;;15.60;70.40;;;;;;5014376;28;20025;-68
2022/10/07 09:54:33;;;;;;;10.10;2.60;;;15.60;70.30;;;;;;5004813;28;20026;-68
2022/10/07 09:57:02;;;;;;;6.22;2.30;;;15.70;70.10;;;;;;5011230;28;20026;-68
2022/10/07 09:59:35;;;;;;;7.10;2.30;;;15.80;70.10;;;;;;5011575;28;20396;-68
2022/10/07 10:02:19;;;;;;;7.95;2.55;;;15.90;70.00;;;;;;5010647;28;20045;-68
2022/10/07 10:04:49;;;;;;;9.93;2.92;;;15.90;70.30;;;;;;5009532;28;20029;-68
2022/10/07 10:07:17;;;;;;;8.55;2.22;;;16.00;69.40;;;;;;5024843;28;20033;-68
2022/10/07 10:10:19;;;;;;;4.10;1.75;;;16.00;69.20;;;;;;5010588;28;20034;-68
2022/10/07 10:12:48;;;;;;;8.70;2.10;;;16.20;69.10;;;;;;5008874;28;20042;-68
2022/10/07 10:15:25;;;;;;;7.53;2.50;;;16.30;68.80;;;;;;5007590;28;20018;-68
2022/10/07 10:17:55;;;;;;;8.48;2.53;;;16.30;68.40;;;;;;4992400;28;20141;-68
2022/10/07 10:20:42;;;;;;;9.00;2.42;;;16.30;68.10;;;;;;5010917;28;20034;-68
2022/10/07 10:23:32;;;;;;;12.90;2.97;;;16.30;67.70;;;;;;5003077;28;20365;-68
2022/10/07 10:26:25;;;;;;;9.05;2.47;;;16.30;67.10;;;;;;5013076;28;20033;-68
2022/10/07 10:29:06;;;;;;;10.50;2.40;;;16.30;67.40;;;;;;5000769;28;20065;-68
2022/10/07 10:31:34;;;;;;;6.85;2.00;;;16.40;67.30;;;;;;4996868;28;20022;-67
2022/10/07 10:34:37;;;;;;;7.47;2.22;;;16.50;66.90;;;;;;5011015;28;20034;-68
2022/10/07 10:37:11;;;;;;;;;;;16.60;66.90;;;;;;5005749;28;20388;-68
2022/10/07 10:40:00;;;;;;;9.32;2.15;;;16.60;66.60;;;;;;5009040;28;19959;-68
2022/10/07 10:42:43;;;;;;;6.28;2.05;;;16.70;66.60;;;;;;5008408;28;20029;-67
2022/10/07 10:45:50;;;;;;;10.35;2.30;;;16.80;66.20;;;;;;5009952;28;20038;-68
2022/10/07 10:48:27;;;;;;;11.93;2.33;;;16.90;65.50;;;;;;5003026;28;20036;-68
2022/10/07 10:51:04;;;;;;;7.55;1.90;;;17.00;65.70;;;;;;5008930;28;20618;-68
2022/10/07 10:53:36;;;;;;;7.35;1.92;;;17.10;65.30;;;;;;5009743;28;20396;-68
2022/10/07 10:56:26;;;;;;;7.88;2.00;;;17.20;64.90;;;;;;5009562;28;20033;-68
2022/10/07 10:59:09;;;;;;;5.72;1.88;;;17.20;64.50;;;;;;4998983;28;20108;-69
2022/10/07 11:01:43;;;;;;;9.23;2.05;;;17.30;64.50;;;;;;5004365;28;20085;-69
2022/10/07 11:04:20;;;;;;;7.63;2.00;;;17.40;64.00;;;;;;5002279;28;20040;-69
2022/10/07 11:06:52;;;;;;;4.28;1.60;;;17.40;63.50;;;;;;5009144;28;20030;-69
2022/10/07 11:09:43;;;;;;;8.32;2.63;;;17.40;63.60;;;;;;5007231;28;20112;-69
2022/10/07 11:12:21;;;;;;;9.27;2.30;;;17.50;63.10;;;;;;5001404;28;20462;-69
2022/10/07 11:14:53;;;;;;;4.47;1.63;;;17.50;62.80;;;;;;5005403;28;20025;-69
2022/10/07 11:17:23;;;;;;;9.85;2.30;;;17.60;63.00;;;;;;5006869;28;20060;-69
2022/10/07 11:20:04;;;;;;;4.72;1.60;;;17.60;62.90;;;;;;5008603;28;20017;-69
2022/10/07 11:22:37;;;;;;;6.47;2.00;;;17.70;62.70;;;;;;5003888;28;20034;-69
2022/10/07 11:25:19;;;;;;;4.75;1.40;;;17.80;62.50;;;;;;5007699;28;20056;-69
2022/10/07 11:27:49;;;;;;;7.35;1.90;;;17.90;62.40;;;;;;5003554;28;20113;-69
2022/10/07 11:30:21;;;;;;;6.85;2.28;;;17.90;60.60;;;;;;5009052;28;20026;-69
2022/10/07 11:32:57;;;;;;;7.70;1.93;;;17.90;60.50;;;;;;5006594;28;20084;-69
2022/10/07 11:35:42;;;;;;;8.57;2.15;;;17.90;60.80;;;;;;5006022;28;20258;-69
2022/10/07 11:38:13;;;;;;;9.32;2.17;;;18.00;60.80;;;;;;5003755;28;20030;-69
2022/10/07 11:40:55;;;;;;;5.65;1.88;;;18.10;60.50;;;;;;4990694;28;20031;-68
2022/10/07 11:43:27;;;;;;;;;;;18.20;60.70;;;;;;5007417;28;20045;-68
2022/10/07 11:46:13;;;;;;;9.88;2.13;;;18.30;60.60;;;;;;5005416;28;19917;-68
2022/10/07 11:48:48;;;;;;;7.43;2.22;;;18.40;60.40;;;;;;5005040;28;20018;-69
2022/10/07 11:51:36;;;;;;;8.23;2.15;;;18.50;60.10;;;;;;5009739;28;20022;-68
2022/10/07 11:54:05;;;;;;;7.78;1.80;;;18.50;58.40;;;;;;5000173;28;20030;-68
2022/10/07 11:56:46;;;;;;;4.95;1.73;;;18.60;58.60;;;;;;5009670;28;20114;-68
2022/10/07 11:59:33;;;;;;;6.20;1.98;;;18.70;58.70;;;;;;5009268;28;20101;-69
2022/10/07 12:01:59;;;;;;;5.90;1.80;;;18.70;58.30;;;;;;5006690;28;20479;-69
2022/10/07 12:04:34;;;;;;;7.05;1.80;;;18.90;58.30;;;;;;5007435;28;20034;-69
2022/10/07 12:07:30;;;;;;;7.65;1.40;;;19.00;58.40;;;;;;5006468;28;20065;-68
2022/10/07 12:10:00;;;;;;;4.68;1.60;;;19.00;58.50;;;;;;5007339;28;20555;-68
2022/10/07 12:12:47;;;;;;;4.50;1.40;;;19.10;58.30;;;;;;5008426;28;20026;-68
2022/10/07 12:15:27;;;;;;;5.45;1.65;;;19.20;58.20;;;;;;5008092;28;20041;-67
2022/10/07 12:18:18;;;;;;;6.45;1.88;;;19.20;57.90;;;;;;5008061;28;20163;-66
2022/10/07 12:20:51;;;;;;;6.03;1.60;;;19.30;57.30;;;;;;5008779;28;20619;-67
2022/10/07 12:23:19;;;;;;;4.05;1.30;;;19.40;57.60;;;;;;5007320;28;20480;-68
2022/10/07 12:25:53;;;;;;;5.80;1.60;;;19.40;57.40;;;;;;5006836;28;20080;-67
2022/10/07 12:28:29;;;;;;;7.32;1.73;;;19.50;57.10;;;;;;5007293;28;20046;-67
2022/10/07 12:30:59;;;;;;;6.07;1.40;;;19.50;56.80;;;;;;5006299;28;20478;-67
2022/10/07 12:33:42;;;;;;;6.75;1.60;;;19.70;56.90;;;;;;5004510;28;20026;-67
2022/10/07 12:36:35;;;;;;;6.10;1.77;;;19.80;56.30;;;;;;5007628;28;20394;-68
2022/10/07 12:39:00;;;;;;;6.70;1.60;;;19.80;56.00;;;;;;5005858;28;20049;-68
2022/10/07 12:41:29;;;;;;;5.45;1.75;;;19.80;55.50;;;;;;5010047;28;20038;-68
2022/10/07 12:44:03;;;;;;;7.40;1.40;;;19.90;55.90;;;;;;5009099;28;20032;-68
2022/10/07 12:46:49;;;;;;;5.68;1.70;;;19.90;55.80;;;;;;5011257;28;20116;-68
2022/10/07 12:49:23;;;;;;;7.03;1.50;;;19.90;55.70;;;;;;5009358;28;20142;-68
2022/10/07 12:51:52;;;;;;;6.82;1.55;;;20.00;55.70;;;;;;5011117;28;20080;-68
2022/10/07 12:54:26;;;;;;;5.97;1.67;;;20.10;55.30;;;;;;5008802;28;20036;-68
2022/10/07 12:56:51;;;;;;;4.45;1.70;;;20.00;54.60;;;;;;5010086;28;20108;-68
2022/10/07 12:59:49;;;;;;;6.10;1.48;;;20.00;53.90;;;;;;5013851;28;20477;-68
2022/10/07 13:02:21;;;;;;;4.70;1.48;;;20.10;54.50;;;;;;5006959;28;20014;-67
2022/10/07 13:04:49;;;;;;;;;;;20.20;54.40;;;;;;5010200;28;20038;-67
2022/10/07 13:07:57;;;;;;;6.25;1.75;;;20.20;54.30;;;;;;5010128;28;19944;-68
2022/10/07 13:10:28;;;;;;;5.47;1.70;;;20.20;53.20;;;;;;5010458;28;20125;-68
2022/10/07 13:13:12;;;;;;;5.68;2.00;;;20.10;52.90;;;;;;4998045;28;20640;-68
2022/10/07 13:15:43;;;;;;;5.35;1.70;;;20.20;53.10;;;;;;5001242;28;20026;-68
2022/10/07 13:18:29;;;;;;;9.77;1.88;;;20.30;52.70;;;;;;4998395;28;20022;-68
2022/10/07 13:21:20;;;;;;;6.13;1.70;;;20.40;52.20;;;;;;5001190;28;20435;-68